Time;durP1;ratioP1;P1;durP2;ratioP2;P2;SDS_P1;SDS_P2;PMS_P1;PMS_P2;Temp;Humidity;BMP_temperature;BMP_pressure;BME280_temperature;BME280_humidity;BME280_pressure;Samples;Min_cycle;Max_cycle;Signal;HPM_P1;HPM_P2
2021/11/16 00:01:48;;;;;;;36.53;17.57;;;6.10;99.90;;;;;;5080422;27;20187;-57
2021/11/16 00:04:18;;;;;;;34.50;17.63;;;6.00;99.90;;;;;;5096476;27;20221;-58
2021/11/16 00:06:51;;;;;;;39.73;19.17;;;6.00;99.90;;;;;;5101194;27;20206;-59
2021/11/16 00:09:20;;;;;;;36.70;18.57;;;6.00;99.90;;;;;;5100862;28;20222;-58
2021/11/16 00:11:49;;;;;;;37.23;19.20;;;6.00;99.90;;;;;;5101865;27;20195;-57
2021/11/16 00:14:19;;;;;;;38.33;18.73;;;6.00;99.90;;;;;;5101094;27;20195;-58
2021/11/16 00:16:48;;;;;;;42.70;19.43;;;6.00;99.90;;;;;;5104841;27;20196;-58
2021/11/16 00:19:18;;;;;;;44.27;19.10;;;6.00;99.90;;;;;;5105528;27;20207;-58
2021/11/16 00:21:49;;;;;;;43.50;20.37;;;6.00;99.90;;;;;;5100622;27;20201;-58
2021/11/16 00:24:22;;;;;;;45.40;19.00;;;6.00;99.90;;;;;;5104084;28;20235;-58
2021/11/16 00:26:53;;;;;;;41.83;19.90;;;5.90;99.90;;;;;;5111403;27;20221;-58
2021/11/16 00:29:22;;;;;;;41.63;18.57;;;5.90;99.90;;;;;;5102864;28;20197;-58
2021/11/16 00:31:51;;;;;;;35.93;19.23;;;5.90;99.90;;;;;;5103860;27;20195;-58
2021/11/16 00:34:25;;;;;;;47.33;21.03;;;5.90;99.90;;;;;;5101486;27;20183;-58
2021/11/16 00:36:54;;;;;;;43.60;20.40;;;5.90;99.90;;;;;;5098331;28;20198;-57
2021/11/16 00:39:22;;;;;;;45.73;20.13;;;5.90;99.90;;;;;;5099311;27;20188;-58
2021/11/16 00:41:54;;;;;;;47.17;20.50;;;5.90;99.90;;;;;;5099717;27;20230;-58
2021/11/16 00:44:23;;;;;;;44.27;20.50;;;5.90;99.90;;;;;;5102763;27;20889;-58
2021/11/16 00:46:52;;;;;;;48.23;21.13;;;5.90;99.90;;;;;;5101277;27;20229;-58
2021/11/16 00:49:20;;;;;;;44.67;20.50;;;5.80;99.90;;;;;;5109046;27;20202;-57
2021/11/16 00:51:50;;;;;;;48.63;21.17;;;5.80;99.90;;;;;;5115438;27;20194;-58
2021/11/16 00:54:20;;;;;;;47.77;22.23;;;5.80;99.90;;;;;;5102348;28;20191;-57
2021/11/16 00:56:48;;;;;;;54.63;23.37;;;5.80;99.90;;;;;;5093714;28;20636;-58
2021/11/16 00:59:17;;;;;;;48.47;22.03;;;5.80;99.90;;;;;;5110384;27;20273;-58
2021/11/16 01:01:46;;;;;;;49.97;22.57;;;5.80;99.90;;;;;;5097364;28;20191;-57
2021/11/16 01:04:52;;;;;;;47.57;22.47;;;5.80;99.90;;;;;;5103871;28;20766;-58
2021/11/16 01:07:59;;;;;;;48.50;21.37;;;5.80;99.90;;;;;;5104337;28;20215;-56
2021/11/16 01:10:28;;;;;;;46.00;21.30;;;5.80;99.90;;;;;;5101252;28;20584;-58
2021/11/16 01:13:00;;;;;;;49.63;20.90;;;5.80;99.90;;;;;;5104330;28;20206;-58
2021/11/16 01:15:29;;;;;;;48.73;21.93;;;5.80;99.90;;;;;;5102000;28;20209;-58
2021/11/16 01:17:57;;;;;;;44.70;20.17;;;5.80;99.90;;;;;;5093466;28;20263;-58
2021/11/16 01:20:26;;;;;;;47.87;22.13;;;5.80;99.90;;;;;;5105462;28;20606;-57
2021/11/16 01:22:56;;;;;;;54.17;22.40;;;5.80;99.90;;;;;;5107477;28;20622;-58
2021/11/16 01:25:27;;;;;;;47.50;22.00;;;5.80;99.90;;;;;;5103382;28;20231;-58
2021/11/16 01:28:00;;;;;;;53.10;22.47;;;5.80;99.90;;;;;;5102176;28;20195;-58
2021/11/16 01:30:31;;;;;;;51.77;22.17;;;5.80;99.90;;;;;;5103697;28;20179;-58
2021/11/16 01:33:05;;;;;;;54.00;24.23;;;5.80;99.90;;;;;;5106431;28;20244;-58
2021/11/16 01:35:35;;;;;;;54.77;23.60;;;5.70;99.90;;;;;;5108700;28;20278;-58
2021/11/16 01:38:04;;;;;;;56.50;24.67;;;5.70;99.90;;;;;;5108708;28;20242;-57
2021/11/16 01:40:35;;;;;;;51.87;24.07;;;5.70;99.90;;;;;;5104686;28;20208;-58
2021/11/16 01:43:09;;;;;;;49.50;23.43;;;5.70;99.90;;;;;;5098649;28;20310;-57
2021/11/16 01:45:58;;;;;;;54.10;22.07;;;5.70;99.90;;;;;;5102418;28;20266;-57
2021/11/16 01:48:31;;;;;;;53.20;22.87;;;5.80;99.90;;;;;;5101474;28;20231;-58
2021/11/16 01:50:59;;;;;;;48.03;22.37;;;5.80;99.90;;;;;;5108271;28;20230;-58
2021/11/16 01:53:28;;;;;;;52.53;23.43;;;5.80;99.90;;;;;;5105573;28;20226;-58
2021/11/16 01:55:59;;;;;;;53.53;23.17;;;5.80;99.90;;;;;;5103678;28;20224;-57
2021/11/16 01:58:27;;;;;;;47.47;21.60;;;5.80;99.90;;;;;;5094995;28;20665;-58
2021/11/16 02:00:56;;;;;;;51.73;22.40;;;5.80;99.90;;;;;;5095709;28;20638;-57
2021/11/16 02:03:25;;;;;;;54.70;23.07;;;5.80;99.90;;;;;;5104278;28;20206;-58
2021/11/16 02:05:55;;;;;;;54.90;22.57;;;5.80;99.90;;;;;;5103950;27;20211;-58
2021/11/16 02:08:25;;;;;;;51.97;22.57;;;5.80;99.90;;;;;;5113085;27;20737;-58
2021/11/16 02:10:55;;;;;;;49.30;22.07;;;5.80;99.90;;;;;;5104206;28;20273;-57
2021/11/16 02:13:25;;;;;;;53.20;23.80;;;5.80;99.90;;;;;;5123884;27;20194;-58
2021/11/16 02:15:54;;;;;;;50.83;23.03;;;5.80;99.90;;;;;;5100682;27;20195;-58
2021/11/16 02:18:23;;;;;;;49.70;21.50;;;5.80;99.90;;;;;;5109642;28;20205;-58
2021/11/16 02:20:53;;;;;;;52.47;23.13;;;5.80;99.90;;;;;;5108441;27;20198;-58
2021/11/16 02:23:22;;;;;;;57.43;24.93;;;5.80;99.90;;;;;;5109860;28;20234;-58
2021/11/16 02:25:51;;;;;;;53.10;23.13;;;5.80;99.90;;;;;;5108979;27;20218;-58
2021/11/16 02:28:21;;;;;;;51.57;23.13;;;5.80;99.90;;;;;;5107605;27;20202;-58
2021/11/16 02:30:50;;;;;;;48.97;21.50;;;5.80;99.90;;;;;;5108153;27;20190;-58
2021/11/16 02:33:19;;;;;;;53.03;23.57;;;5.80;99.90;;;;;;5121669;27;20192;-56
2021/11/16 02:35:49;;;;;;;56.70;23.60;;;5.80;99.90;;;;;;5097255;27;20211;-58
2021/11/16 02:38:21;;;;;;;53.20;24.00;;;5.70;99.90;;;;;;5110110;27;20239;-59
2021/11/16 02:40:53;;;;;;;57.67;24.17;;;5.70;99.90;;;;;;5105195;27;20195;-59
2021/11/16 02:43:23;;;;;;;50.90;21.93;;;5.70;99.90;;;;;;5106320;27;20222;-58
2021/11/16 02:45:53;;;;;;;50.57;22.60;;;5.70;99.90;;;;;;5109777;27;20207;-58
2021/11/16 02:48:21;;;;;;;52.93;22.17;;;5.70;99.90;;;;;;5111497;27;20322;-58
2021/11/16 02:50:53;;;;;;;57.83;23.37;;;5.70;99.90;;;;;;5109265;27;20201;-58
2021/11/16 02:53:24;;;;;;;57.50;23.80;;;5.80;99.90;;;;;;5109907;27;20191;-58
2021/11/16 02:55:53;;;;;;;55.37;23.70;;;5.80;99.90;;;;;;5106564;27;20224;-58
2021/11/16 02:58:24;;;;;;;52.23;23.23;;;5.70;99.90;;;;;;5105571;27;20203;-58
2021/11/16 03:01:04;;;;;;;58.27;22.77;;;5.70;99.90;;;;;;5110817;27;20250;-58
2021/11/16 03:03:34;;;;;;;53.17;23.47;;;5.70;99.90;;;;;;5104880;27;20728;-58
2021/11/16 03:06:02;;;;;;;59.53;25.27;;;5.70;99.90;;;;;;5107648;27;20218;-57
2021/11/16 03:08:32;;;;;;;56.97;24.17;;;5.70;99.90;;;;;;5103231;27;20832;-58
2021/11/16 03:11:06;;;;;;;54.00;24.40;;;5.70;99.90;;;;;;5108106;27;20251;-56
2021/11/16 03:13:37;;;;;;;55.17;23.33;;;5.70;99.90;;;;;;5106525;27;20187;-57
2021/11/16 03:16:07;;;;;;;54.80;23.83;;;5.70;99.90;;;;;;5108736;27;20187;-58
2021/11/16 03:18:36;;;;;;;55.60;23.63;;;5.70;99.90;;;;;;5104156;28;20194;-58
2021/11/16 03:21:04;;;;;;;55.47;24.03;;;5.70;99.90;;;;;;5109695;27;20200;-58
2021/11/16 03:23:34;;;;;;;58.63;24.13;;;5.70;99.90;;;;;;5109773;27;20294;-58
2021/11/16 03:26:03;;;;;;;51.50;22.20;;;5.70;99.90;;;;;;5103026;28;20889;-58
2021/11/16 03:28:36;;;;;;;60.23;24.60;;;5.70;99.90;;;;;;5099432;28;20256;-58
2021/11/16 03:31:11;;;;;;;59.43;24.43;;;5.80;99.90;;;;;;5105194;27;20684;-58
2021/11/16 03:33:40;;;;;;;59.07;24.20;;;5.70;99.90;;;;;;5102021;28;20700;-57
2021/11/16 03:36:09;;;;;;;64.23;24.63;;;5.70;99.90;;;;;;5096531;27;20282;-58
2021/11/16 03:38:40;;;;;;;63.30;24.60;;;5.70;99.90;;;;;;5101188;27;20255;-58
2021/11/16 03:41:10;;;;;;;64.07;25.07;;;5.70;99.90;;;;;;5108316;28;20199;-58
2021/11/16 03:43:39;;;;;;;55.83;24.73;;;5.70;99.90;;;;;;5097317;28;20198;-58
2021/11/16 03:46:09;;;;;;;62.33;24.47;;;5.70;99.90;;;;;;5099329;28;20238;-58
2021/11/16 03:48:38;;;;;;;64.13;25.33;;;5.70;99.90;;;;;;5107142;27;20197;-58
2021/11/16 03:51:07;;;;;;;65.30;26.87;;;5.70;99.90;;;;;;5106145;28;20546;-57
2021/11/16 03:53:35;;;;;;;61.23;25.00;;;5.70;99.90;;;;;;5104448;27;20182;-57
2021/11/16 03:56:06;;;;;;;59.67;25.47;;;5.70;99.90;;;;;;5097593;27;20191;-58
2021/11/16 03:58:35;;;;;;;65.97;25.60;;;5.70;99.90;;;;;;5109208;28;20209;-58
2021/11/16 04:01:06;;;;;;;55.93;23.87;;;5.70;99.90;;;;;;5103492;27;20198;-58
2021/11/16 04:03:38;;;;;;;57.73;23.47;;;5.70;99.90;;;;;;5101775;27;20663;-58
2021/11/16 04:06:07;;;;;;;58.77;24.03;;;5.70;99.90;;;;;;5116211;27;20228;-58
2021/11/16 04:08:36;;;;;;;61.63;25.47;;;5.70;99.90;;;;;;5106386;28;20970;-58
2021/11/16 04:11:07;;;;;;;63.80;25.00;;;5.70;99.90;;;;;;5105457;27;20237;-58
2021/11/16 04:13:36;;;;;;;55.93;24.30;;;5.70;99.90;;;;;;5100300;28;20270;-58
2021/11/16 04:16:05;;;;;;;58.30;24.03;;;5.70;99.90;;;;;;5105686;27;20584;-58
2021/11/16 04:18:34;;;;;;;57.67;23.27;;;5.70;99.90;;;;;;5105090;27;20270;-57
2021/11/16 04:21:04;;;;;;;57.77;24.40;;;5.70;99.90;;;;;;5108261;27;20199;-58
2021/11/16 04:23:32;;;;;;;64.53;26.00;;;5.70;99.90;;;;;;5099273;27;20653;-58
2021/11/16 04:26:02;;;;;;;59.70;24.03;;;5.70;99.90;;;;;;5105683;28;20600;-57
2021/11/16 04:28:32;;;;;;;60.80;23.50;;;5.70;99.90;;;;;;5104498;28;20574;-58
2021/11/16 04:31:02;;;;;;;64.47;25.63;;;5.70;99.90;;;;;;5107420;28;20209;-58
2021/11/16 04:33:30;;;;;;;74.03;26.77;;;5.70;99.90;;;;;;5097559;28;20202;-57
2021/11/16 04:35:59;;;;;;;69.93;27.27;;;5.70;99.90;;;;;;5108643;27;20290;-57
2021/11/16 04:38:28;;;;;;;69.00;26.07;;;5.70;99.90;;;;;;5105518;28;20239;-58
2021/11/16 04:40:57;;;;;;;71.13;26.53;;;5.70;99.90;;;;;;5101824;28;20202;-58
2021/11/16 04:43:27;;;;;;;64.53;26.13;;;5.70;99.90;;;;;;5105051;27;20277;-58
2021/11/16 04:46:03;;;;;;;71.37;26.37;;;5.70;99.90;;;;;;5107135;28;20202;-58
2021/11/16 04:48:53;;;;;;;78.67;27.73;;;5.70;99.90;;;;;;5106184;28;20664;-58
2021/11/16 04:54:49;;;;;;;69.33;26.73;;;5.70;99.90;;;;;;5079748;28;20222;-58
2021/11/16 05:03:09;;;;;;;75.00;28.00;;;5.70;99.90;;;;;;5034276;28;20208;-58
2021/11/16 05:05:38;;;;;;;71.07;28.47;;;5.70;99.90;;;;;;5086206;28;20260;-58
2021/11/16 05:08:06;;;;;;;74.93;28.33;;;5.70;99.90;;;;;;5102251;28;20282;-58
2021/11/16 05:10:35;;;;;;;75.30;29.07;;;5.70;99.90;;;;;;5100582;28;20270;-58
2021/11/16 05:13:03;;;;;;;73.70;27.90;;;5.70;99.90;;;;;;5096235;28;20760;-58
2021/11/16 05:15:34;;;;;;;70.33;27.73;;;5.70;99.90;;;;;;5106140;27;20248;-58
2021/11/16 05:18:02;;;;;;;77.37;29.73;;;5.70;99.90;;;;;;5100555;28;20198;-58
2021/11/16 05:20:32;;;;;;;69.03;27.70;;;5.70;99.90;;;;;;5094038;28;20287;-58
2021/11/16 05:23:00;;;;;;;72.30;27.70;;;5.70;99.90;;;;;;5106512;28;20282;-58
2021/11/16 05:25:29;;;;;;;68.20;25.97;;;5.70;99.90;;;;;;5102983;28;20605;-58
2021/11/16 05:28:02;;;;;;;75.50;29.33;;;5.70;99.90;;;;;;5102049;28;20264;-57
2021/11/16 05:30:30;;;;;;;74.10;28.33;;;5.70;99.90;;;;;;5103611;28;20700;-58
2021/11/16 05:32:59;;;;;;;68.63;27.33;;;5.70;99.90;;;;;;5098250;28;20270;-58
2021/11/16 05:35:27;;;;;;;73.60;26.70;;;5.70;99.90;;;;;;5101448;28;20199;-58
2021/11/16 05:37:57;;;;;;;68.00;28.30;;;5.70;99.90;;;;;;5103980;28;20257;-56
2021/11/16 05:40:26;;;;;;;69.17;27.83;;;5.80;99.90;;;;;;5100286;28;20290;-58
2021/11/16 05:42:54;;;;;;;79.33;29.43;;;5.80;99.90;;;;;;5106984;27;20203;-59
2021/11/16 05:45:22;;;;;;;74.33;28.00;;;5.70;99.90;;;;;;5105104;28;20210;-58
2021/11/16 05:47:53;;;;;;;70.00;29.27;;;5.80;99.90;;;;;;5104109;27;20205;-58
2021/11/16 05:50:22;;;;;;;71.30;27.27;;;5.80;99.90;;;;;;5089549;28;20219;-58
2021/11/16 05:52:50;;;;;;;73.67;28.40;;;5.80;99.90;;;;;;5109190;28;20270;-58
2021/11/16 05:55:20;;;;;;;66.93;27.70;;;5.80;99.90;;;;;;5106152;28;20194;-58
2021/11/16 05:57:50;;;;;;;70.67;28.30;;;5.80;99.90;;;;;;5110187;27;20749;-58
2021/11/16 06:00:18;;;;;;;70.93;27.70;;;5.70;99.90;;;;;;5103815;27;20965;-57
2021/11/16 06:03:12;;;;;;;67.53;28.27;;;5.70;99.90;;;;;;5106253;28;20552;-59
2021/11/16 06:05:41;;;;;;;71.57;28.23;;;5.70;99.90;;;;;;5101182;28;20194;-58
2021/11/16 06:08:19;;;;;;;72.30;29.17;;;5.80;99.90;;;;;;5103898;27;20733;-58
2021/11/16 06:10:50;;;;;;;74.27;29.50;;;5.80;99.90;;;;;;5098104;27;20259;-58
2021/11/16 06:13:18;;;;;;;68.47;30.27;;;5.80;99.90;;;;;;5107806;27;20209;-58
2021/11/16 06:15:47;;;;;;;70.77;29.43;;;5.80;99.90;;;;;;5093966;27;20195;-57
2021/11/16 06:18:16;;;;;;;75.43;30.53;;;5.70;99.90;;;;;;5102163;28;20195;-57
2021/11/16 06:20:47;;;;;;;71.50;30.80;;;5.70;99.90;;;;;;5106811;27;20190;-58
2021/11/16 06:23:15;;;;;;;74.57;31.30;;;5.70;99.90;;;;;;5107013;28;20222;-58
2021/11/16 06:25:44;;;;;;;76.20;31.37;;;5.70;99.90;;;;;;5095355;28;20199;-58
2021/11/16 06:28:14;;;;;;;75.80;32.37;;;5.70;99.90;;;;;;5112072;27;20225;-58
2021/11/16 06:30:43;;;;;;;80.07;31.27;;;5.70;99.90;;;;;;5102216;27;20281;-58
2021/11/16 06:33:11;;;;;;;78.27;30.03;;;5.70;99.90;;;;;;5105969;27;20222;-58
2021/11/16 06:35:40;;;;;;;80.50;33.33;;;5.70;99.90;;;;;;5091750;27;20985;-58
2021/11/16 06:38:08;;;;;;;70.63;30.33;;;5.70;99.90;;;;;;5102923;27;20214;-57
2021/11/16 06:40:41;;;;;;;76.30;30.63;;;5.70;99.90;;;;;;5107702;27;20194;-58
2021/11/16 06:43:09;;;;;;;72.07;29.37;;;5.70;99.90;;;;;;5107006;27;20271;-58
2021/11/16 06:45:39;;;;;;;78.50;31.10;;;5.70;99.90;;;;;;5102154;27;20202;-58
2021/11/16 06:48:07;;;;;;;77.10;30.43;;;5.70;99.90;;;;;;5102534;28;20635;-58
2021/11/16 06:50:36;;;;;;;81.60;31.00;;;5.70;99.90;;;;;;5100296;27;20211;-58
2021/11/16 06:53:05;;;;;;;71.47;29.60;;;5.80;99.90;;;;;;5101939;28;20197;-58
2021/11/16 06:55:33;;;;;;;72.60;29.93;;;5.80;99.90;;;;;;5103421;28;20278;-58
2021/11/16 06:58:02;;;;;;;72.90;30.70;;;5.80;99.90;;;;;;5104048;28;20661;-57
2021/11/16 07:00:32;;;;;;;78.00;30.93;;;5.80;99.90;;;;;;5106521;27;20213;-58
2021/11/16 07:03:04;;;;;;;71.23;30.03;;;5.80;99.90;;;;;;5101013;27;20210;-57
2021/11/16 07:05:33;;;;;;;77.10;30.47;;;5.70;99.90;;;;;;5105264;27;20263;-58
2021/11/16 07:08:02;;;;;;;70.30;30.47;;;5.70;99.90;;;;;;5104026;27;20334;-54
2021/11/16 07:10:32;;;;;;;73.70;29.47;;;5.70;99.90;;;;;;5098815;27;20207;-58
2021/11/16 07:13:09;;;;;;;90.87;34.27;;;5.70;99.90;;;;;;5110349;27;20198;-58
2021/11/16 07:44:28;;;;;;;64.87;27.97;;;5.80;99.90;;;;;;5088473;27;20355;-56
2021/11/16 07:46:58;;;;;;;70.43;30.20;;;5.70;99.90;;;;;;5110129;27;20237;-56
2021/11/16 07:49:26;;;;;;;69.93;30.40;;;5.70;99.90;;;;;;5108991;27;20274;-56
2021/11/16 07:51:56;;;;;;;70.60;29.73;;;5.80;99.90;;;;;;5109422;27;20226;-58
2021/11/16 07:54:27;;;;;;;74.70;30.10;;;5.80;99.90;;;;;;5110748;27;20719;-58
2021/11/16 07:57:03;;;;;;;71.70;30.33;;;5.80;99.90;;;;;;5098015;27;20220;-58
2021/11/16 07:59:33;;;;;;;76.23;30.13;;;5.80;99.90;;;;;;5109757;27;20199;-58
2021/11/16 08:02:06;;;;;;;69.70;29.37;;;5.80;99.90;;;;;;5116849;27;20223;-58
2021/11/16 08:04:42;;;;;;;80.47;31.97;;;5.80;99.90;;;;;;5085517;28;20187;-57
2021/11/16 08:07:25;;;;;;;77.33;31.73;;;5.80;99.90;;;;;;5112703;27;20230;-57
2021/11/16 08:09:55;;;;;;;79.37;31.20;;;5.80;99.90;;;;;;5105973;27;20195;-58
2021/11/16 08:12:32;;;;;;;81.20;32.33;;;5.80;99.90;;;;;;5108568;27;20202;-58
2021/11/16 08:15:05;;;;;;;88.03;32.93;;;5.80;99.90;;;;;;5092148;27;20191;-58
2021/11/16 08:17:36;;;;;;;73.43;30.97;;;5.80;99.90;;;;;;5112245;27;20186;-58
2021/11/16 08:20:08;;;;;;;78.63;31.50;;;5.80;99.90;;;;;;5111162;27;20263;-57
2021/11/16 08:22:37;;;;;;;82.97;33.17;;;5.80;99.90;;;;;;5101113;27;20214;-57
2021/11/16 08:25:08;;;;;;;85.70;32.27;;;5.80;99.90;;;;;;5093691;27;20339;-58
2021/11/16 08:27:38;;;;;;;85.00;31.93;;;5.80;99.90;;;;;;5109354;27;20214;-58
2021/11/16 08:30:12;;;;;;;75.93;31.10;;;5.80;99.90;;;;;;5108733;27;20214;-58
2021/11/16 08:32:42;;;;;;;85.97;32.43;;;5.80;99.90;;;;;;5109112;27;20190;-58
2021/11/16 08:35:13;;;;;;;72.43;30.20;;;5.80;99.90;;;;;;5095166;27;20199;-58
2021/11/16 08:37:45;;;;;;;81.47;31.67;;;5.80;99.90;;;;;;5109862;27;20194;-58
2021/11/16 08:40:17;;;;;;;75.43;31.50;;;5.80;99.90;;;;;;5090219;27;20198;-58
2021/11/16 08:42:53;;;;;;;84.80;34.80;;;5.80;99.90;;;;;;5125194;27;20242;-58
2021/11/16 08:45:28;;;;;;;83.47;32.97;;;5.80;99.90;;;;;;5150194;27;20192;-58
2021/11/16 08:48:05;;;;;;;78.33;32.07;;;5.80;99.90;;;;;;5153288;27;20274;-58
2021/11/16 08:50:36;;;;;;;87.33;32.57;;;5.80;99.90;;;;;;5131408;27;20181;-58
2021/11/16 08:53:07;;;;;;;77.87;32.97;;;5.80;99.90;;;;;;5145900;27;20217;-58
2021/11/16 08:55:38;;;;;;;85.87;33.53;;;5.90;99.90;;;;;;5150992;27;20194;-58
2021/11/16 08:58:13;;;;;;;74.97;31.27;;;5.80;99.90;;;;;;5118322;27;20289;-58
2021/11/16 09:00:47;;;;;;;85.93;32.87;;;5.90;99.90;;;;;;5137409;27;20248;-58
2021/11/16 09:03:23;;;;;;;70.23;29.03;;;5.90;99.90;;;;;;5132574;27;21279;-58
2021/11/16 09:05:52;;;;;;;79.30;31.67;;;5.90;99.90;;;;;;5150048;27;20284;-58
2021/11/16 09:08:25;;;;;;;80.33;31.50;;;5.90;99.90;;;;;;5150022;27;20208;-58
2021/11/16 09:10:56;;;;;;;73.67;29.33;;;5.90;99.90;;;;;;5143628;27;20281;-57
2021/11/16 09:13:28;;;;;;;79.13;33.70;;;5.90;99.90;;;;;;5157812;27;20209;-58
2021/11/16 09:16:03;;;;;;;85.37;35.00;;;5.90;99.90;;;;;;5148144;27;20201;-57
2021/11/16 09:18:38;;;;;;;76.03;31.57;;;5.90;99.90;;;;;;5137744;27;20921;-58
2021/11/16 09:21:10;;;;;;;82.80;33.30;;;5.90;99.90;;;;;;5152773;27;20191;-58
2021/11/16 09:23:43;;;;;;;83.90;33.17;;;5.90;99.90;;;;;;5151434;27;20276;-59
2021/11/16 09:26:20;;;;;;;80.50;32.70;;;5.90;99.90;;;;;;5147501;27;20254;-58
2021/11/16 09:28:54;;;;;;;83.23;33.20;;;5.90;99.90;;;;;;5151561;27;20679;-59
2021/11/16 09:31:30;;;;;;;85.07;33.07;;;6.00;99.90;;;;;;5152369;27;20572;-58
2021/11/16 09:34:02;;;;;;;88.43;35.23;;;6.00;99.90;;;;;;5145861;27;20197;-58
2021/11/16 09:36:37;;;;;;;81.47;33.83;;;6.00;99.90;;;;;;5153646;27;20216;-58
2021/11/16 09:39:09;;;;;;;83.00;33.63;;;6.00;99.90;;;;;;5134469;27;20180;-58
2021/11/16 09:41:41;;;;;;;77.57;31.47;;;6.00;99.90;;;;;;5143422;27;20552;-58
2021/11/16 09:44:14;;;;;;;76.07;31.07;;;6.00;99.90;;;;;;5145642;27;20221;-58
2021/11/16 09:46:51;;;;;;;81.20;32.03;;;6.00;99.90;;;;;;5130853;27;20679;-57
2021/11/16 09:49:29;;;;;;;82.13;33.33;;;6.10;99.90;;;;;;5148116;27;20601;-56
2021/11/16 09:52:01;;;;;;;88.27;36.60;;;6.00;99.90;;;;;;5134602;27;20284;-58
2021/11/16 09:54:30;;;;;;;79.17;32.23;;;6.00;99.90;;;;;;5150375;27;20192;-58
2021/11/16 09:57:06;;;;;;;77.77;31.73;;;6.00;99.90;;;;;;5149978;27;20675;-56
2021/11/16 09:59:38;;;;;;;93.53;36.00;;;6.00;99.90;;;;;;5132922;27;20793;-57
2021/11/16 10:02:16;;;;;;;84.10;32.77;;;6.10;99.90;;;;;;5154008;27;20193;-57
2021/11/16 10:04:50;;;;;;;82.47;32.67;;;6.20;99.90;;;;;;5147392;27;20209;-58
2021/11/16 10:07:19;;;;;;;81.33;32.30;;;6.20;99.90;;;;;;5146351;27;20559;-57
2021/11/16 10:09:49;;;;;;;88.67;32.90;;;6.20;99.90;;;;;;5133373;27;20300;-58
2021/11/16 10:12:23;;;;;;;75.67;31.13;;;6.20;99.90;;;;;;5151874;27;20210;-58
2021/11/16 10:14:52;;;;;;;84.23;33.67;;;6.20;99.90;;;;;;5153146;27;20198;-58
2021/11/16 10:17:23;;;;;;;84.77;32.37;;;6.20;99.90;;;;;;5150036;27;20272;-58
2021/11/16 10:19:52;;;;;;;79.53;32.53;;;6.20;99.90;;;;;;5147571;27;20774;-58
2021/11/16 10:22:24;;;;;;;83.40;32.23;;;6.20;99.90;;;;;;5151137;27;20220;-58
2021/11/16 10:24:52;;;;;;;81.50;32.03;;;6.20;99.90;;;;;;5151223;27;20247;-58
2021/11/16 10:27:37;;;;;;;82.13;33.80;;;6.20;99.90;;;;;;5157347;27;20193;-58
2021/11/16 10:30:12;;;;;;;84.17;33.33;;;6.20;99.90;;;;;;5151509;27;20606;-58
2021/11/16 10:32:44;;;;;;;83.63;33.20;;;6.20;99.90;;;;;;5150108;27;20232;-58
2021/11/16 10:35:16;;;;;;;79.50;31.87;;;6.20;99.90;;;;;;5133393;27;20197;-58
2021/11/16 10:37:51;;;;;;;75.27;31.27;;;6.30;99.90;;;;;;5134451;27;20203;-59
2021/11/16 10:40:23;;;;;;;73.67;30.17;;;6.30;99.90;;;;;;5151100;27;20196;-58
2021/11/16 10:42:53;;;;;;;78.27;33.03;;;6.30;99.90;;;;;;5148852;27;20742;-58
2021/11/16 10:45:24;;;;;;;73.50;30.80;;;6.30;99.90;;;;;;5158368;27;20685;-58
2021/11/16 10:47:58;;;;;;;78.40;32.07;;;6.30;99.90;;;;;;5157508;27;20189;-57
2021/11/16 10:50:29;;;;;;;82.67;33.70;;;6.30;99.90;;;;;;5153492;27;20504;-59
2021/11/16 10:53:01;;;;;;;78.63;31.27;;;6.30;99.90;;;;;;5149805;27;20539;-58
2021/11/16 10:55:43;;;;;;;72.90;29.47;;;6.30;99.90;;;;;;5147041;27;20334;-58
2021/11/16 10:58:13;;;;;;;80.77;31.70;;;6.30;99.90;;;;;;5148244;27;20216;-58
2021/11/16 11:00:54;;;;;;;86.80;32.97;;;6.30;99.90;;;;;;5150798;27;20198;-58
2021/11/16 11:03:28;;;;;;;74.87;30.03;;;6.30;99.90;;;;;;5147637;27;20199;-59
2021/11/16 11:05:59;;;;;;;76.17;31.20;;;6.30;99.90;;;;;;5156059;27;20189;-58
2021/11/16 11:08:36;;;;;;;70.87;29.93;;;6.30;99.90;;;;;;5130973;27;20211;-58
2021/11/16 11:11:07;;;;;;;82.33;31.50;;;6.30;99.90;;;;;;5136668;27;20191;-58
2021/11/16 11:13:37;;;;;;;79.73;29.73;;;6.30;99.90;;;;;;5134119;27;20201;-57
2021/11/16 11:16:12;;;;;;;83.60;32.00;;;6.30;99.90;;;;;;5156529;27;20205;-58
2021/11/16 11:18:45;;;;;;;72.50;28.90;;;6.30;99.90;;;;;;5150594;27;20190;-58
2021/11/16 11:21:38;;;;;;;77.27;31.53;;;6.30;99.90;;;;;;5123542;27;20198;-58
2021/11/16 11:24:13;;;;;;;73.00;29.27;;;6.30;99.90;;;;;;5143292;27;20197;-57
2021/11/16 11:26:46;;;;;;;82.03;33.00;;;6.30;99.90;;;;;;5149769;27;20192;-58
2021/11/16 11:29:32;;;;;;;79.93;32.23;;;6.40;99.90;;;;;;5128262;27;20298;-58
2021/11/16 11:32:14;;;;;;;79.53;31.90;;;6.40;99.90;;;;;;5149285;27;20257;-57
2021/11/16 11:34:49;;;;;;;77.17;30.80;;;6.40;99.90;;;;;;5123952;27;20194;-58
2021/11/16 11:37:21;;;;;;;66.37;28.00;;;6.40;99.90;;;;;;5129408;27;20189;-58
2021/11/16 11:39:59;;;;;;;63.93;25.83;;;6.40;99.90;;;;;;5123543;27;20195;-57
2021/11/16 11:42:28;;;;;;;63.83;25.80;;;6.40;99.90;;;;;;5145730;27;20232;-59
2021/11/16 11:45:07;;;;;;;62.30;26.63;;;6.30;99.90;;;;;;5145496;27;20233;-58
2021/11/16 11:47:38;;;;;;;63.70;26.63;;;6.30;99.90;;;;;;5142936;27;20578;-58
2021/11/16 11:50:28;;;;;;;69.17;30.97;;;6.40;99.90;;;;;;5143287;27;20210;-58
2021/11/16 11:52:58;;;;;;;64.33;25.90;;;6.40;99.90;;;;;;5128213;27;20280;-57
2021/11/16 11:55:28;;;;;;;57.20;23.30;;;6.40;99.90;;;;;;5146202;27;20716;-58
2021/11/16 11:57:57;;;;;;;49.27;20.83;;;6.40;99.90;;;;;;5143714;27;20600;-57
2021/11/16 12:00:26;;;;;;;56.53;23.53;;;6.40;99.90;;;;;;5144852;27;20262;-58
2021/11/16 12:03:12;;;;;;;57.40;23.40;;;6.40;99.90;;;;;;5143632;27;20204;-58
2021/11/16 12:05:44;;;;;;;57.70;23.47;;;6.50;99.90;;;;;;5135812;27;20205;-57
2021/11/16 12:08:15;;;;;;;60.63;24.00;;;6.50;99.90;;;;;;5153393;27;20276;-57
2021/11/16 12:10:47;;;;;;;55.90;22.40;;;6.50;99.90;;;;;;5130081;27;20213;-57
2021/11/16 12:13:20;;;;;;;52.83;21.60;;;6.50;99.90;;;;;;5159954;27;20239;-57
2021/11/16 12:15:52;;;;;;;49.43;21.03;;;6.50;99.90;;;;;;5145139;27;20274;-56
2021/11/16 12:18:21;;;;;;;56.40;22.67;;;6.50;99.90;;;;;;5120003;27;20250;-57
2021/11/16 12:20:54;;;;;;;59.63;25.50;;;6.50;99.90;;;;;;5149284;27;20213;-57
2021/11/16 12:23:45;;;;;;;69.60;28.37;;;6.50;99.90;;;;;;5159876;27;20185;-58
2021/11/16 12:26:16;;;;;;;64.97;26.87;;;6.60;99.90;;;;;;5150035;27;20206;-57
2021/11/16 12:28:46;;;;;;;64.13;25.57;;;6.70;99.90;;;;;;5151251;27;20889;-56
2021/11/16 12:31:28;;;;;;;60.07;26.97;;;6.70;99.90;;;;;;5148372;27;20274;-57
2021/11/16 12:33:58;;;;;;;58.37;28.53;;;6.70;99.90;;;;;;5153364;27;20188;-57
2021/11/16 12:36:48;;;;;;;57.07;26.93;;;6.60;99.90;;;;;;5150283;27;20192;-58
2021/11/16 12:39:20;;;;;;;55.40;24.27;;;6.60;99.90;;;;;;5149781;27;20188;-57
2021/11/16 12:41:52;;;;;;;53.63;22.73;;;6.60;99.90;;;;;;5152482;27;20197;-59
2021/11/16 12:44:42;;;;;;;56.53;22.63;;;6.70;99.90;;;;;;5154502;27;20271;-59
2021/11/16 12:47:15;;;;;;;49.73;21.37;;;6.70;99.90;;;;;;5152591;27;20835;-59
2021/11/16 12:49:45;;;;;;;54.53;22.20;;;6.70;99.90;;;;;;5125887;27;20221;-58
2021/11/16 12:52:16;;;;;;;55.90;24.13;;;6.60;99.90;;;;;;5142697;27;20189;-59
2021/11/16 12:54:45;;;;;;;57.60;23.63;;;6.60;99.90;;;;;;5128404;27;20742;-59
2021/11/16 12:57:17;;;;;;;63.73;24.77;;;6.60;99.90;;;;;;5132543;27;20196;-59
2021/11/16 13:00:09;;;;;;;63.23;26.40;;;6.60;99.90;;;;;;5148484;27;20178;-59
2021/11/16 13:02:54;;;;;;;64.77;26.73;;;6.60;99.90;;;;;;5142083;27;20209;-60
2021/11/16 13:05:36;;;;;;;63.80;27.37;;;6.70;99.90;;;;;;5152670;27;20647;-59
2021/11/16 13:08:06;;;;;;;62.40;28.47;;;6.70;99.90;;;;;;5126124;27;20211;-59
2021/11/16 13:10:45;;;;;;;68.93;30.80;;;6.70;99.90;;;;;;5143599;27;20245;-59
2021/11/16 13:13:24;;;;;;;91.57;42.23;;;6.70;99.90;;;;;;5149566;27;20933;-59
2021/11/16 13:15:56;;;;;;;65.50;26.30;;;6.60;99.90;;;;;;5133527;27;20249;-59
2021/11/16 13:18:44;;;;;;;67.03;26.47;;;6.60;99.90;;;;;;5148317;27;20288;-59
2021/11/16 13:21:22;;;;;;;60.27;25.90;;;6.60;99.90;;;;;;5146748;27;20697;-59
2021/11/16 13:23:55;;;;;;;80.43;40.60;;;6.60;99.90;;;;;;5145046;27;20241;-59
2021/11/16 13:26:27;;;;;;;58.80;25.87;;;6.50;99.90;;;;;;5136993;27;20265;-57
2021/11/16 13:29:19;;;;;;;58.43;24.40;;;6.50;99.90;;;;;;5151544;27;20775;-60
2021/11/16 13:31:57;;;;;;;58.73;24.90;;;6.60;99.90;;;;;;5128147;27;20276;-59
2021/11/16 13:34:39;;;;;;;60.37;25.27;;;6.60;99.90;;;;;;5148935;27;20193;-59
2021/11/16 13:37:14;;;;;;;63.90;27.10;;;6.70;99.90;;;;;;5148230;27;20257;-57
2021/11/16 13:39:43;;;;;;;66.60;27.30;;;6.60;99.90;;;;;;5149140;27;20188;-58